createdAt,value
2024-05-09T00:00:45.067Z,103042.53
2024-05-09T00:03:12.542Z,103054.16
2024-05-09T00:05:45.637Z,103029.84
2024-05-09T00:08:15.598Z,103058.69
2024-05-09T00:10:42.384Z,103033.53
2024-05-09T00:13:11.125Z,103059.94
2024-05-09T00:15:41.420Z,103044.91
2024-05-09T00:18:11.597Z,103047.03
2024-05-09T00:20:41.441Z,103011.16
2024-05-09T00:23:11.789Z,103046.25
2024-05-09T00:25:39.646Z,103029.47
2024-05-09T00:28:08.873Z,103033.09
2024-05-09T00:30:37.154Z,102975.56
2024-05-09T00:33:06.497Z,102993.78
2024-05-09T00:35:34.705Z,103002.78
2024-05-09T00:38:04.916Z,103005.41
2024-05-09T00:40:40.506Z,103006.09
2024-05-09T00:43:10.517Z,103012.03
2024-05-09T00:45:38.855Z,102969.50
2024-05-09T00:48:08.013Z,103018.69
2024-05-09T00:50:39.132Z,102992.44
2024-05-09T00:53:14.377Z,103022.91
2024-05-09T00:55:42.078Z,103018.31
2024-05-09T00:58:12.198Z,103010.91
2024-05-09T01:00:41.156Z,103023.00
2024-05-09T01:03:13.615Z,103023.13
2024-05-09T01:05:43.990Z,103005.47
2024-05-09T01:08:11.880Z,103005.28
2024-05-09T01:10:41.739Z,102991.50
2024-05-09T01:13:13.756Z,103014.91
2024-05-09T01:15:40.619Z,103011.41
2024-05-09T01:18:13.457Z,102979.88
2024-05-09T01:20:43.886Z,103008.31
2024-05-09T01:23:14.162Z,102998.50
2024-05-09T01:25:47.740Z,102993.28
2024-05-09T01:28:15.221Z,102989.69
2024-05-09T01:30:42.174Z,102958.63
2024-05-09T01:33:12.550Z,102976.25
2024-05-09T01:35:43.439Z,102970.16
2024-05-09T01:38:13.802Z,102986.22
2024-05-09T01:40:44.176Z,102974.47
2024-05-09T01:43:11.997Z,102987.00
2024-05-09T01:45:40.300Z,102963.69
2024-05-09T01:48:08.460Z,102985.69
2024-05-09T01:50:39.835Z,102979.75
2024-05-09T01:53:15.224Z,102990.56
2024-05-09T01:55:45.163Z,102976.25
2024-05-09T01:58:12.142Z,102988.16
2024-05-09T02:00:42.366Z,102953.00
2024-05-09T02:03:16.895Z,102984.25
2024-05-09T02:05:47.152Z,102990.50
2024-05-09T02:08:16.998Z,102986.78
2024-05-09T02:10:44.946Z,102984.34
2024-05-09T02:13:14.937Z,102972.66
2024-05-09T02:15:41.909Z,102980.47
2024-05-09T02:18:10.285Z,102982.88
2024-05-09T02:20:44.062Z,102936.50
2024-05-09T02:23:11.742Z,102957.34
2024-05-09T02:25:41.060Z,102958.75
2024-05-09T02:28:10.320Z,102970.00
2024-05-09T02:30:42.589Z,102955.34
2024-05-09T02:33:12.549Z,102949.84
2024-05-09T02:35:41.362Z,102973.06
2024-05-09T02:38:09.461Z,102968.69
2024-05-09T02:40:39.901Z,102941.94
2024-05-09T02:43:11.581Z,102963.16
2024-05-09T02:45:40.417Z,102961.28
2024-05-09T02:48:14.125Z,102959.38
2024-05-09T02:50:44.740Z,102960.91
2024-05-09T02:53:12.468Z,102962.56
2024-05-09T02:55:39.694Z,102957.19
2024-05-09T02:58:14.313Z,102973.00
2024-05-09T03:00:42.713Z,102961.28
2024-05-09T03:03:15.128Z,102971.81
2024-05-09T03:05:45.933Z,102963.91
2024-05-09T03:08:13.254Z,102958.28
2024-05-09T03:10:40.292Z,102958.09
2024-05-09T03:13:13.068Z,102954.91
2024-05-09T03:15:41.200Z,102967.31
2024-05-09T03:18:11.132Z,102950.56
2024-05-09T03:20:39.219Z,102940.44
2024-05-09T03:23:09.325Z,102964.38
2024-05-09T03:25:40.198Z,102974.31
2024-05-09T03:28:07.584Z,102971.00
2024-05-09T03:30:40.774Z,102962.00
2024-05-09T03:33:12.712Z,102964.69
2024-05-09T03:35:40.580Z,102955.00
2024-05-09T03:38:07.411Z,102924.91
2024-05-09T03:40:34.189Z,102961.09
2024-05-09T03:43:00.902Z,102951.09
2024-05-09T03:45:29.838Z,102966.31
2024-05-09T03:47:59.161Z,102968.91
2024-05-09T03:50:33.411Z,102962.59
2024-05-09T03:53:02.734Z,102972.31
2024-05-09T03:55:31.970Z,102977.50
2024-05-09T03:57:59.168Z,102954.47
2024-05-09T04:00:35.816Z,102961.00
2024-05-09T04:03:08.594Z,102966.19
2024-05-09T04:05:39.831Z,102963.50
2024-05-09T04:08:10.089Z,102951.09
2024-05-09T04:10:37.213Z,102950.47
2024-05-09T04:13:06.422Z,102935.13
2024-05-09T04:15:33.362Z,102932.97
2024-05-09T04:18:01.121Z,102948.69
2024-05-09T04:20:37.996Z,102952.19
2024-05-09T04:23:13.630Z,102921.00
2024-05-09T04:25:43.185Z,102926.66
2024-05-09T04:28:10.173Z,102905.09
2024-05-09T04:30:39.878Z,102941.75
2024-05-09T04:33:11.935Z,102935.13
2024-05-09T04:35:42.759Z,102931.03
2024-05-09T04:38:12.876Z,102916.28
2024-05-09T04:40:40.026Z,102915.81
2024-05-09T04:43:14.663Z,102935.56
2024-05-09T04:45:41.785Z,102926.66
2024-05-09T04:48:09.050Z,102924.16
2024-05-09T04:50:39.688Z,102923.53
2024-05-09T04:53:11.348Z,102874.94
2024-05-09T04:55:40.953Z,102938.25
2024-05-09T04:58:14.852Z,102944.25
2024-05-09T05:00:44.161Z,102935.16
2024-05-09T05:03:14.569Z,102945.19
2024-05-09T05:05:44.858Z,102952.38
2024-05-09T05:08:17.537Z,102931.56
2024-05-09T05:10:45.800Z,102958.06
2024-05-09T05:13:22.436Z,102945.84
2024-05-09T05:15:58.214Z,102955.28
2024-05-09T05:18:28.657Z,102959.16
2024-05-09T05:20:58.559Z,102952.44
2024-05-09T05:23:28.523Z,102952.22
2024-05-09T05:25:55.703Z,102954.31
2024-05-09T05:28:22.888Z,102961.63
2024-05-09T05:30:49.875Z,102957.75
2024-05-09T05:33:20.106Z,102957.06
2024-05-09T05:35:47.254Z,102958.75
2024-05-09T05:38:14.128Z,102967.25
2024-05-09T05:40:43.267Z,102965.94
2024-05-09T05:43:17.037Z,102966.19
2024-05-09T05:45:44.126Z,102972.72
2024-05-09T05:48:13.380Z,102940.09
2024-05-09T05:50:40.327Z,102941.28
2024-05-09T05:53:10.642Z,102963.19
2024-05-09T05:55:39.333Z,102965.41
2024-05-09T05:58:10.268Z,102970.38
2024-05-09T06:00:40.677Z,102963.63
2024-05-09T06:03:11.709Z,102954.06
2024-05-09T06:05:40.500Z,102970.94
2024-05-09T06:08:08.062Z,102963.38
2024-05-09T06:10:40.061Z,102939.69
2024-05-09T06:13:11.532Z,102961.84
2024-05-09T06:15:41.481Z,102970.63
2024-05-09T06:18:10.165Z,102964.31
2024-05-09T06:20:40.080Z,102960.94
2024-05-09T06:23:08.518Z,102958.41
2024-05-09T06:25:38.598Z,102966.69
2024-05-09T06:28:06.021Z,102967.97
2024-05-09T06:30:42.448Z,102943.84
2024-05-09T06:33:12.891Z,102956.13
2024-05-09T06:35:44.907Z,102927.34
2024-05-09T06:38:14.478Z,102964.56
2024-05-09T06:40:43.810Z,102947.88
2024-05-09T06:43:19.101Z,102957.31
2024-05-09T06:45:53.107Z,102952.06
2024-05-09T06:48:23.273Z,102953.63
2024-05-09T06:50:54.857Z,102959.34
2024-05-09T06:53:23.696Z,102926.56
2024-05-09T06:55:52.939Z,102954.09
2024-05-09T06:58:19.855Z,102939.56
2024-05-09T07:00:46.999Z,102954.03
2024-05-09T07:03:17.187Z,102940.25
2024-05-09T07:05:47.207Z,102928.09
2024-05-09T07:08:17.864Z,102928.72
2024-05-09T07:10:45.022Z,102949.03
2024-05-09T07:13:13.230Z,102922.03
2024-05-09T07:15:41.277Z,102935.81
2024-05-09T07:18:18.457Z,102940.47
2024-05-09T07:20:49.839Z,102937.13
2024-05-09T07:23:20.578Z,102933.78
2024-05-09T07:25:47.575Z,102906.34
2024-05-09T07:28:16.156Z,102932.25
2024-05-09T07:30:43.556Z,102933.19
2024-05-09T07:33:15.871Z,102926.03
2024-05-09T07:35:43.048Z,102936.66
2024-05-09T07:38:09.983Z,102925.78
2024-05-09T07:40:37.248Z,102912.34
2024-05-09T07:43:11.744Z,102926.66
2024-05-09T07:45:48.627Z,102933.75
2024-05-09T07:52:39.077Z,102923.09
2024-05-09T07:53:49.695Z,102931.13
2024-05-09T07:56:21.993Z,102925.78
2024-05-09T07:58:51.861Z,102924.84
2024-05-09T08:01:19.738Z,102921.41
2024-05-09T08:03:49.364Z,102900.94
2024-05-09T08:06:16.256Z,102921.19
2024-05-09T08:08:43.129Z,102923.75
2024-05-09T08:11:12.492Z,102931.72
2024-05-09T08:13:41.638Z,102920.94
2024-05-09T08:16:09.216Z,102907.56
2024-05-09T08:18:36.212Z,102920.09
2024-05-09T08:21:05.746Z,102922.88
2024-05-09T08:23:32.624Z,102926.41
2024-05-09T08:25:59.370Z,102918.44
2024-05-09T08:28:26.133Z,102905.94
2024-05-09T08:30:53.053Z,102920.00
2024-05-09T08:33:20.187Z,102913.78
2024-05-09T08:35:47.007Z,102912.19
2024-05-09T08:38:13.800Z,102873.28
2024-05-09T08:40:41.611Z,102914.97
2024-05-09T08:43:13.178Z,102916.59
2024-05-09T08:45:44.555Z,102917.31
2024-05-09T08:48:15.049Z,102893.09
2024-05-09T08:50:43.671Z,102918.63
2024-05-09T08:53:10.931Z,102906.19
2024-05-09T08:55:41.594Z,102907.06
2024-05-09T08:58:14.455Z,102907.22
2024-05-09T09:00:44.547Z,102904.66
2024-05-09T09:03:15.559Z,102904.69
2024-05-09T09:05:52.720Z,102902.97
2024-05-09T09:08:21.573Z,102892.22
2024-05-09T09:10:54.401Z,102893.25
2024-05-09T09:13:21.529Z,102901.44
2024-05-09T09:15:52.302Z,102900.56
2024-05-09T09:18:25.453Z,102900.53
2024-05-09T09:20:52.420Z,102899.72
2024-05-09T09:23:19.802Z,102889.16
2024-05-09T09:25:46.615Z,102873.31
2024-05-09T09:28:13.639Z,102894.81
2024-05-09T09:30:41.364Z,102888.63
2024-05-09T09:33:09.505Z,102879.72
2024-05-09T09:35:38.646Z,102885.97
2024-05-09T09:38:07.199Z,102893.09
2024-05-09T09:40:41.100Z,102885.97
2024-05-09T09:43:16.951Z,102899.34
2024-05-09T09:45:47.286Z,102891.34
2024-05-09T09:48:16.939Z,102899.34
2024-05-09T09:50:49.870Z,102849.53
2024-05-09T09:53:17.180Z,102883.34
2024-05-09T09:55:46.439Z,102862.84
2024-05-09T09:58:16.426Z,102875.28
2024-05-09T10:00:43.915Z,102873.41
2024-05-09T10:03:10.983Z,102862.66
2024-05-09T10:05:39.814Z,102882.19
2024-05-09T10:08:11.947Z,102872.31
2024-05-09T10:10:39.099Z,102872.06
2024-05-09T10:13:07.753Z,102875.47
2024-05-09T10:15:48.159Z,102876.94
2024-05-09T10:18:17.829Z,102890.97
2024-05-09T10:20:45.646Z,102896.09
2024-05-09T10:23:28.636Z,102885.31
2024-05-09T10:26:05.951Z,102887.09
2024-05-09T10:28:35.074Z,102877.16
2024-05-09T10:31:14.586Z,102885.00
2024-05-09T10:33:54.256Z,102889.22
2024-05-09T10:36:25.822Z,102885.63
2024-05-09T10:38:56.907Z,102876.66
2024-05-09T10:41:24.087Z,102841.97
2024-05-09T10:43:51.797Z,102869.72
2024-05-09T10:46:21.401Z,102850.16
2024-05-09T10:48:50.871Z,102863.66
2024-05-09T10:51:21.641Z,102866.09
2024-05-09T10:53:52.695Z,102857.91
2024-05-09T10:56:19.514Z,102847.94
2024-05-09T10:58:46.263Z,102860.50
2024-05-09T11:01:16.354Z,102855.31
2024-05-09T11:03:50.014Z,102853.44
2024-05-09T11:06:21.626Z,102843.69
2024-05-09T11:08:49.012Z,102848.91
2024-05-09T11:11:16.521Z,102849.50
2024-05-09T11:13:43.441Z,102834.41
2024-05-09T11:16:21.281Z,102853.03
2024-05-09T11:18:58.574Z,102853.16
2024-05-09T11:21:25.879Z,102836.22
2024-05-09T11:23:53.005Z,102800.56
2024-05-09T11:26:21.710Z,102851.44
2024-05-09T11:28:48.917Z,102815.03
2024-05-09T11:31:15.825Z,102834.69
2024-05-09T11:33:45.722Z,102806.94
2024-05-09T11:36:13.308Z,102845.44
2024-05-09T11:38:40.717Z,102843.59
2024-05-09T11:41:07.715Z,102831.75
2024-05-09T11:43:34.562Z,102810.34
2024-05-09T11:46:02.840Z,102824.53
2024-05-09T11:48:30.626Z,102815.41
2024-05-09T11:50:57.611Z,102835.75
2024-05-09T11:53:24.400Z,102842.00
2024-05-09T11:55:51.224Z,102845.28
2024-05-09T11:58:19.226Z,102816.44
2024-05-09T12:00:51.301Z,102840.16
2024-05-09T12:03:18.428Z,102838.06
2024-05-09T12:05:45.540Z,102807.00
2024-05-09T12:08:12.550Z,102814.38
2024-05-09T12:10:39.488Z,102825.28
2024-05-09T12:13:07.366Z,102762.03
2024-05-09T12:15:38.367Z,102819.22
2024-05-09T12:18:08.592Z,102788.94
2024-05-09T12:20:38.817Z,102811.97
2024-05-09T12:23:11.453Z,102815.25
2024-05-09T12:25:39.989Z,102801.78
2024-05-09T12:28:10.405Z,102767.88
2024-05-09T12:30:40.312Z,102793.72
2024-05-09T12:33:12.414Z,102771.94
2024-05-09T12:35:40.215Z,102789.56
2024-05-09T12:38:09.338Z,102781.31
2024-05-09T12:40:38.679Z,102756.94
2024-05-09T12:43:10.412Z,102791.50
2024-05-09T12:45:40.909Z,102734.06
2024-05-09T12:48:13.479Z,102741.72
2024-05-09T12:50:43.309Z,102778.88
2024-05-09T12:53:10.257Z,102765.16
2024-05-09T12:55:44.896Z,102759.41
2024-05-09T12:58:22.324Z,102777.06
2024-05-09T13:00:49.664Z,102764.47
2024-05-09T13:03:16.731Z,102742.09
2024-05-09T13:05:46.523Z,102760.78
2024-05-09T13:08:16.218Z,102760.75
2024-05-09T13:10:45.744Z,102752.84
2024-05-09T13:13:15.187Z,102751.63
2024-05-09T13:15:42.271Z,102756.00
2024-05-09T13:18:12.807Z,102741.72
2024-05-09T13:20:41.684Z,102742.56
2024-05-09T13:23:10.788Z,102738.19
2024-05-09T13:25:39.871Z,102734.53
2024-05-09T13:28:09.572Z,102714.41
2024-05-09T13:30:41.358Z,102740.06
2024-05-09T13:33:13.562Z,102736.22
2024-05-09T13:35:49.726Z,102703.84
2024-05-09T13:38:21.334Z,102712.69
2024-05-09T13:40:49.221Z,102718.09
2024-05-09T13:43:19.409Z,102702.81
2024-05-09T13:45:47.038Z,102685.56
2024-05-09T13:48:14.265Z,102721.97
2024-05-09T13:50:43.998Z,102700.34
2024-05-09T13:53:10.781Z,102708.09
2024-05-09T13:55:38.735Z,102712.06
2024-05-09T13:58:06.635Z,102713.56
2024-05-09T14:00:44.049Z,102664.28
2024-05-09T14:03:16.348Z,102706.97
2024-05-09T14:05:46.593Z,102637.09
2024-05-09T14:08:15.737Z,102703.91
2024-05-09T14:10:45.156Z,102693.19
2024-05-09T14:13:13.033Z,102687.06
2024-05-09T14:15:42.601Z,102689.84
2024-05-09T14:18:12.513Z,102657.03
2024-05-09T14:20:40.959Z,102689.94
2024-05-09T14:23:10.927Z,102681.94
2024-05-09T14:25:42.334Z,102679.97
2024-05-09T14:28:11.201Z,102664.69
2024-05-09T14:30:39.172Z,102677.28
2024-05-09T14:33:07.807Z,102673.78
2024-05-09T14:35:35.931Z,102657.09
2024-05-09T14:38:03.435Z,102666.09
2024-05-09T14:40:41.005Z,102671.69
2024-05-09T14:43:15.001Z,102671.81
2024-05-09T14:45:45.581Z,102670.06
2024-05-09T14:48:15.167Z,102631.78
2024-05-09T14:50:42.785Z,102667.75
2024-05-09T14:53:20.621Z,102675.72
2024-05-09T14:55:49.654Z,102652.50
2024-05-09T14:58:16.974Z,102662.22
2024-05-09T15:00:50.306Z,102632.84
2024-05-09T15:03:20.434Z,102629.16
2024-05-09T15:05:51.093Z,102653.97
2024-05-09T15:08:19.320Z,102641.28
2024-05-09T15:10:46.888Z,102640.13
2024-05-09T15:13:16.432Z,102619.22
2024-05-09T15:15:44.317Z,102629.81
2024-05-09T15:18:11.406Z,102644.72
2024-05-09T15:20:40.382Z,102637.63
2024-05-09T15:23:09.968Z,102605.63
2024-05-09T15:25:37.155Z,102626.22
2024-05-09T15:28:05.211Z,102627.25
2024-05-09T15:30:33.804Z,102630.81
2024-05-09T15:33:06.187Z,102623.94
2024-05-09T15:35:34.321Z,102623.03
2024-05-09T15:38:03.234Z,102609.25
2024-05-09T15:40:37.726Z,102618.91
2024-05-09T15:43:09.323Z,102605.63
2024-05-09T15:45:37.979Z,102602.00
2024-05-09T15:48:06.000Z,102612.88
2024-05-09T15:50:38.611Z,102609.50
2024-05-09T15:53:09.585Z,102619.53
2024-05-09T15:55:37.265Z,102610.91
2024-05-09T15:58:05.629Z,102615.56
2024-05-09T16:00:40.298Z,102617.31
2024-05-09T16:03:11.319Z,102608.34
2024-05-09T16:05:39.309Z,102605.72
2024-05-09T16:08:07.379Z,102604.19
2024-05-09T16:10:35.352Z,102584.66
2024-05-09T16:13:03.508Z,102606.22
2024-05-09T16:15:33.316Z,102617.50
2024-05-09T16:18:03.153Z,102589.03
2024-05-09T16:20:38.668Z,102597.19
2024-05-09T16:23:13.086Z,102600.03
2024-05-09T16:25:43.113Z,102592.06
2024-05-09T16:28:10.939Z,102583.97
2024-05-09T16:30:41.321Z,102588.44
2024-05-09T16:33:09.263Z,102564.56
2024-05-09T16:35:39.511Z,102572.69
2024-05-09T16:38:06.665Z,102569.84
2024-05-09T16:40:38.308Z,102573.41
2024-05-09T16:43:17.290Z,102574.34
2024-05-09T16:45:44.989Z,102574.13
2024-05-09T16:48:13.184Z,102571.38
2024-05-09T16:50:40.136Z,102562.47
2024-05-09T16:53:07.322Z,102575.00
2024-05-09T16:55:35.553Z,102571.72
2024-05-09T16:58:08.578Z,102578.09
2024-05-09T17:00:41.149Z,102545.50
2024-05-09T17:03:12.991Z,102561.72
2024-05-09T17:05:41.299Z,102572.53
2024-05-09T17:08:08.835Z,102573.34
2024-05-09T17:10:38.232Z,102563.69
2024-05-09T17:13:07.451Z,102562.66
2024-05-09T17:15:40.012Z,102555.25
2024-05-09T17:18:07.730Z,102573.81
2024-05-09T17:20:36.917Z,102546.09
2024-05-09T17:23:12.663Z,102568.44
2024-05-09T17:25:43.189Z,102573.69
2024-05-09T17:28:10.861Z,102558.38
2024-05-09T17:30:39.933Z,102516.44
2024-05-09T17:33:09.598Z,102541.22
2024-05-09T17:35:37.842Z,102576.69
2024-05-09T17:38:08.311Z,102572.13
2024-05-09T17:40:37.304Z,102572.84
2024-05-09T17:43:10.824Z,102560.25
2024-05-09T17:45:41.994Z,102554.56
2024-05-09T17:48:10.916Z,102569.44
2024-05-09T17:50:43.421Z,102569.13
2024-05-09T17:53:12.455Z,102570.78
2024-05-09T17:55:42.715Z,102567.13
2024-05-09T17:58:13.405Z,102570.47
2024-05-09T18:00:42.360Z,102558.06
2024-05-09T18:03:11.941Z,102570.16
2024-05-09T18:05:43.833Z,102569.00
2024-05-09T18:08:14.036Z,102553.81
2024-05-09T18:10:42.479Z,102566.97
2024-05-09T18:13:13.260Z,102572.06
2024-05-09T18:15:40.541Z,102561.97
2024-05-09T18:18:08.160Z,102571.59
2024-05-09T18:20:43.219Z,102573.06
2024-05-09T18:23:19.206Z,102565.81
2024-05-09T18:25:48.897Z,102554.13
2024-05-09T18:28:16.449Z,102567.41
2024-05-09T18:30:46.293Z,102527.88
2024-05-09T18:33:13.514Z,102572.53
2024-05-09T18:35:44.628Z,102557.66
2024-05-09T18:38:11.469Z,102558.28
2024-05-09T18:40:42.988Z,102576.00
2024-05-09T18:43:11.751Z,102586.44
2024-05-09T18:45:41.086Z,102591.34
2024-05-09T18:48:09.875Z,102567.75
2024-05-09T18:50:39.966Z,102593.13
2024-05-09T18:53:13.538Z,102581.09
2024-05-09T18:55:45.416Z,102586.06
2024-05-09T18:58:17.320Z,102559.81
2024-05-09T19:00:49.236Z,102588.78
2024-05-09T19:03:17.580Z,102575.88
2024-05-09T19:05:47.248Z,102588.19
2024-05-09T19:08:15.455Z,102591.63
2024-05-09T19:10:45.805Z,102588.78
2024-05-09T19:13:14.146Z,102590.44
2024-05-09T19:15:42.663Z,102568.72
2024-05-09T19:18:11.209Z,102591.66
2024-05-09T19:20:40.652Z,102598.53
2024-05-09T19:23:07.710Z,102594.00
2024-05-09T19:25:35.254Z,102598.91
2024-05-09T19:28:03.157Z,102596.06
2024-05-09T19:30:40.220Z,102579.84
2024-05-09T19:33:13.255Z,102593.06
2024-05-09T19:35:40.945Z,102587.38
2024-05-09T19:38:08.082Z,102576.63
2024-05-09T19:40:35.709Z,102596.22
2024-05-09T19:43:06.391Z,102596.94
2024-05-09T19:45:35.166Z,102601.31
2024-05-09T19:48:03.788Z,102592.22
2024-05-09T19:50:37.644Z,102609.78
2024-05-09T19:53:12.148Z,102592.97
2024-05-09T19:55:39.633Z,102586.25
2024-05-09T19:58:07.551Z,102605.94
2024-05-09T20:00:38.257Z,102602.25
2024-05-09T20:03:11.266Z,102612.75
2024-05-09T20:05:42.291Z,102590.19
2024-05-09T20:08:11.794Z,102609.97
2024-05-09T20:10:39.095Z,102627.34
2024-05-09T20:13:08.941Z,102621.06
2024-05-09T20:15:37.772Z,102622.81
2024-05-09T20:18:05.767Z,102599.38
2024-05-09T20:20:41.598Z,102593.22
2024-05-09T20:23:16.267Z,102581.66
2024-05-09T20:25:43.049Z,102570.81
2024-05-09T20:28:10.775Z,102610.38
2024-05-09T20:30:40.234Z,102591.56
2024-05-09T20:33:08.715Z,102601.16
2024-05-09T20:35:41.620Z,102597.56
2024-05-09T20:38:08.479Z,102609.34
2024-05-09T20:40:40.431Z,102593.91
2024-05-09T20:43:10.854Z,102603.59
2024-05-09T20:45:38.254Z,102613.50
2024-05-09T20:48:06.594Z,102594.69
2024-05-09T20:50:39.157Z,102610.66
2024-05-09T20:53:18.586Z,102587.06
2024-05-09T20:55:45.688Z,102607.84
2024-05-09T20:58:13.222Z,102614.03
2024-05-09T21:00:43.724Z,102611.41
2024-05-09T21:03:13.867Z,102601.34
2024-05-09T21:05:44.087Z,102619.13
2024-05-09T21:08:11.192Z,102611.81
2024-05-09T21:10:38.239Z,102582.50
2024-05-09T21:13:06.798Z,102601.25
2024-05-09T21:15:36.723Z,102584.25
2024-05-09T21:18:04.291Z,102596.72
2024-05-09T21:20:35.014Z,102605.59
2024-05-09T21:23:02.733Z,102586.78
2024-05-09T21:25:32.407Z,102591.47
2024-05-09T21:28:01.810Z,102590.38
2024-05-09T21:30:38.353Z,102590.44
2024-05-09T21:33:10.588Z,102577.81
2024-05-09T21:35:38.847Z,102586.50
2024-05-09T21:38:07.229Z,102595.31
2024-05-09T21:40:35.902Z,102580.63
2024-05-09T21:43:08.024Z,102599.28
2024-05-09T21:45:35.896Z,102595.94
2024-05-09T21:48:03.932Z,102559.09
2024-05-09T21:50:37.125Z,102576.28
2024-05-09T21:53:07.654Z,102559.94
2024-05-09T21:55:34.689Z,102598.47
2024-05-09T21:58:01.910Z,102567.94
2024-05-09T22:00:36.758Z,102577.81
2024-05-09T22:03:06.723Z,102594.91
2024-05-09T22:05:37.677Z,102567.94
2024-05-09T22:08:04.900Z,102575.31
2024-05-09T22:10:37.334Z,102592.13
2024-05-09T22:13:05.817Z,102596.47
2024-05-09T22:15:39.339Z,102594.59
2024-05-09T22:18:08.224Z,102586.69
2024-05-09T22:20:38.580Z,102592.88
2024-05-09T22:23:07.020Z,102589.34
2024-05-09T22:25:34.183Z,102591.84
2024-05-09T22:28:05.308Z,102588.25
2024-05-09T22:30:37.121Z,102562.31
2024-05-09T22:33:11.577Z,102582.94
2024-05-09T22:35:40.406Z,102569.28
2024-05-09T22:38:07.632Z,102564.94
2024-05-09T22:40:45.212Z,102568.47
2024-05-09T22:43:23.873Z,102584.53
2024-05-09T22:45:53.191Z,102565.69
2024-05-09T22:48:20.446Z,102577.47
2024-05-09T22:50:50.402Z,102577.47
2024-05-09T22:53:17.162Z,102570.31
2024-05-09T22:55:43.957Z,102552.38
2024-05-09T22:58:10.987Z,102571.97
2024-05-09T23:00:37.902Z,102562.28
2024-05-09T23:03:05.020Z,102557.84
2024-05-09T23:05:36.989Z,102558.66
2024-05-09T23:08:04.080Z,102546.94
2024-05-09T23:10:36.232Z,102548.59
2024-05-09T23:13:07.423Z,102554.00
2024-05-09T23:15:36.015Z,102493.91
2024-05-09T23:18:05.951Z,102554.72
2024-05-09T23:20:38.235Z,102551.28
2024-05-09T23:23:07.573Z,102550.31
2024-05-09T23:25:40.180Z,102519.81
2024-05-09T23:28:07.924Z,102564.22
2024-05-09T23:30:38.822Z,102543.66
2024-05-09T23:33:09.530Z,102564.97
2024-05-09T23:35:36.817Z,102554.91
2024-05-09T23:38:04.115Z,102565.56
2024-05-09T23:40:38.279Z,102566.38
2024-05-09T23:43:08.599Z,102518.53
2024-05-09T23:45:35.895Z,102563.44
2024-05-09T23:48:03.327Z,102559.88
2024-05-09T23:50:35.948Z,102562.31
2024-05-09T23:53:06.541Z,102567.72
2024-05-09T23:55:34.427Z,102549.84
2024-05-09T23:58:01.379Z,102559.38
